createdAt,value
2019-04-11T00:02:28.901Z,13.90
2019-04-11T00:04:58.781Z,16.73
2019-04-11T00:07:28.094Z,16.37
2019-04-11T00:09:57.311Z,16.23
2019-04-11T00:12:26.398Z,18.37
2019-04-11T00:14:56.049Z,16.13
2019-04-11T00:17:25.873Z,15.53
2019-04-11T00:19:55.810Z,14.93
2019-04-11T00:22:25.677Z,12.70
2019-04-11T00:24:55.545Z,16.77
2019-04-11T00:27:25.295Z,15.00
2019-04-11T00:29:55.468Z,17.87
2019-04-11T00:32:25.404Z,18.30
2019-04-11T00:34:55.319Z,15.00
2019-04-11T00:37:25.300Z,14.80
2019-04-11T00:39:56.180Z,15.63
2019-04-11T00:42:26.252Z,13.80
2019-04-11T00:44:57.045Z,15.13
2019-04-11T00:47:26.496Z,15.30
2019-04-11T00:49:56.846Z,15.13
2019-04-11T00:52:27.816Z,14.00
2019-04-11T00:54:57.409Z,16.47
2019-04-11T00:57:26.565Z,19.50
2019-04-11T00:59:56.475Z,13.27
2019-04-11T01:02:25.984Z,17.37
2019-04-11T01:04:55.356Z,17.83
2019-04-11T01:07:24.963Z,14.87
2019-04-11T01:09:54.874Z,14.63
2019-04-11T01:12:24.776Z,15.87
2019-04-11T01:14:55.222Z,16.07
2019-04-11T01:17:25.469Z,19.03
2019-04-11T01:19:55.623Z,15.23
2019-04-11T01:22:26.432Z,17.90
2019-04-11T01:24:56.387Z,18.10
2019-04-11T01:27:26.202Z,14.10
2019-04-11T01:29:55.978Z,15.03
2019-04-11T01:32:26.399Z,18.50
2019-04-11T01:34:57.258Z,14.13
2019-04-11T01:37:26.536Z,12.90
2019-04-11T01:39:59.364Z,15.70
2019-04-11T01:42:29.119Z,16.60
2019-04-11T01:44:58.566Z,15.77
2019-04-11T01:47:57.318Z,13.67
2019-04-11T01:50:29.895Z,15.63
2019-04-11T01:53:00.448Z,14.53
2019-04-11T01:55:29.800Z,12.40
2019-04-11T01:57:58.989Z,16.73
2019-04-11T02:00:50.929Z,12.53
2019-04-11T02:03:25.603Z,12.53
2019-04-11T02:05:54.690Z,14.00
2019-04-11T02:08:25.026Z,16.90
2019-04-11T02:10:54.585Z,15.23
2019-04-11T02:13:24.189Z,13.37
2019-04-11T02:15:56.733Z,13.03
2019-04-11T02:18:25.587Z,14.10
2019-04-11T02:20:55.749Z,15.37
2019-04-11T02:23:39.370Z,11.80
2019-04-11T02:26:18.879Z,11.53
2019-04-11T02:28:48.785Z,13.00
2019-04-11T02:31:20.412Z,12.80
2019-04-11T02:33:51.166Z,14.57
2019-04-11T02:36:20.814Z,16.33
2019-04-11T02:38:56.036Z,12.03
2019-04-11T02:41:21.863Z,13.53
2019-04-11T02:44:01.601Z,11.77
2019-04-11T02:46:38.511Z,13.67
2019-04-11T02:49:03.345Z,11.63
2019-04-11T02:51:32.462Z,11.03
2019-04-11T02:54:02.387Z,17.77
2019-04-11T02:56:35.719Z,10.00
2019-04-11T02:59:05.457Z,13.30
2019-04-11T03:01:36.458Z,10.97
2019-04-11T03:04:07.240Z,14.77
2019-04-11T03:06:39.254Z,11.13
2019-04-11T03:09:10.920Z,11.00
2019-04-11T03:11:40.981Z,11.90
2019-04-11T03:14:13.914Z,13.47
2019-04-11T03:16:56.710Z,11.23
2019-04-11T03:19:29.633Z,11.83
2019-04-11T03:21:47.372Z,8.97
2019-04-11T03:24:17.668Z,11.07
2019-04-11T03:26:49.733Z,10.87
2019-04-11T03:29:19.916Z,10.63
2019-04-11T03:32:33.713Z,10.57
2019-04-11T03:37:18.956Z,11.03
2019-04-11T03:39:43.995Z,11.20
2019-04-11T03:42:09.483Z,9.60
2019-04-11T03:44:32.964Z,11.17
2019-04-11T03:47:14.732Z,10.13
2019-04-11T03:49:37.541Z,9.43
2019-04-11T03:51:59.299Z,12.03
2019-04-11T03:54:29.467Z,11.00
2019-04-11T03:56:59.401Z,9.27
2019-04-11T03:59:31.159Z,10.80
2019-04-11T04:02:00.809Z,11.10
2019-04-11T04:04:30.569Z,10.53
2019-04-11T04:07:00.186Z,9.47
2019-04-11T04:09:29.919Z,10.17
2019-04-11T04:11:59.732Z,11.67
2019-04-11T04:14:51.565Z,10.47
2019-04-11T04:17:32.849Z,12.47
2019-04-11T04:20:11.147Z,12.93
2019-04-11T04:23:00.914Z,13.77
2019-04-11T04:25:30.156Z,11.97
2019-04-11T04:27:59.553Z,10.70
2019-04-11T04:30:29.903Z,12.07
2019-04-11T04:33:00.652Z,9.70
2019-04-11T04:35:31.672Z,10.80
2019-04-11T04:38:03.032Z,11.27
2019-04-11T04:40:49.604Z,10.37
2019-04-11T04:43:07.488Z,14.53
2019-04-11T04:45:54.117Z,12.37
2019-04-11T04:48:11.160Z,11.60
2019-04-11T04:50:39.190Z,8.63
2019-04-11T04:53:09.227Z,8.93
2019-04-11T04:55:39.211Z,13.53
2019-04-11T04:58:09.182Z,17.93
2019-04-11T05:00:43.663Z,15.23
2019-04-11T05:03:13.520Z,14.63
2019-04-11T05:05:44.254Z,11.70
2019-04-11T05:08:14.471Z,12.47
2019-04-11T05:10:44.973Z,10.80
2019-04-11T05:13:15.514Z,10.30
2019-04-11T05:15:45.405Z,12.77
2019-04-11T05:18:17.323Z,13.37
2019-04-11T05:20:46.317Z,14.87
2019-04-11T05:23:15.413Z,14.43
2019-04-11T05:25:44.658Z,10.03
2019-04-11T05:28:14.146Z,11.83
2019-04-11T05:30:45.029Z,12.37
2019-04-11T05:33:14.596Z,11.07
2019-04-11T05:35:43.797Z,15.30
2019-04-11T05:38:12.891Z,10.73
2019-04-11T05:40:42.022Z,11.30
2019-04-11T05:43:11.468Z,10.30
2019-04-11T05:45:40.767Z,10.93
2019-04-11T05:48:15.718Z,12.50
2019-04-11T05:50:48.438Z,12.27
2019-04-11T05:53:15.861Z,10.80
2019-04-11T05:55:47.480Z,10.50
2019-04-11T05:58:17.693Z,13.33
2019-04-11T06:00:59.702Z,10.97
2019-04-11T06:03:30.247Z,12.57
2019-04-11T06:06:10.819Z,8.57
2019-04-11T06:08:41.971Z,11.07
2019-04-11T06:11:45.463Z,10.27
2019-04-11T06:14:37.566Z,10.83
2019-04-11T06:17:09.966Z,14.73
2019-04-11T06:20:04.305Z,14.47
2019-04-11T06:22:35.936Z,8.63
2019-04-11T06:25:35.870Z,10.43
2019-04-11T06:28:18.555Z,9.53
2019-04-11T06:31:06.057Z,9.33
2019-04-11T06:33:37.938Z,13.00
2019-04-11T06:36:18.127Z,10.07
2019-04-11T06:39:19.078Z,11.23
2019-04-11T06:42:21.549Z,9.97
2019-04-11T06:45:29.406Z,10.47
2019-04-11T06:48:29.684Z,9.27
2019-04-11T06:51:28.164Z,9.07
2019-04-11T06:54:15.295Z,14.47
2019-04-11T06:56:47.477Z,10.53
2019-04-11T06:59:20.607Z,13.93
2019-04-11T07:01:50.872Z,10.87
2019-04-11T07:04:46.304Z,14.13
2019-04-11T07:07:16.362Z,13.00
2019-04-11T07:09:49.235Z,18.10
2019-04-11T07:12:24.358Z,15.30
2019-04-11T07:14:58.449Z,11.70
2019-04-11T07:17:58.980Z,14.30
2019-04-11T07:21:03.020Z,12.43
2019-04-11T07:23:51.354Z,10.90
2019-04-11T07:26:30.598Z,11.57
2019-04-11T07:29:21.915Z,18.13
2019-04-11T07:32:11.696Z,13.27
2019-04-11T07:35:00.140Z,14.83
2019-04-11T07:37:34.346Z,12.33
2019-04-11T07:40:26.780Z,11.70
2019-04-11T07:43:16.875Z,14.13
2019-04-11T07:46:24.585Z,13.23
2019-04-11T07:49:01.712Z,16.33
2019-04-11T07:51:36.400Z,12.60
2019-04-11T07:54:12.204Z,15.10
2019-04-11T07:57:04.238Z,15.37
2019-04-11T08:00:12.861Z,17.13
2019-04-11T08:03:07.881Z,17.87
2019-04-11T08:05:54.763Z,16.40
2019-04-11T08:08:43.459Z,14.70
2019-04-11T08:11:17.823Z,14.87
2019-04-11T08:14:04.786Z,11.70
2019-04-11T08:16:51.773Z,15.23
2019-04-11T08:19:39.086Z,11.07
2019-04-11T08:22:30.725Z,8.03
2019-04-11T08:25:07.214Z,13.10
2019-04-11T08:27:50.937Z,10.07
2019-04-11T08:30:11.089Z,9.80
2019-04-11T08:32:55.457Z,8.33
2019-04-11T08:35:50.186Z,9.07
2019-04-11T08:38:32.733Z,9.67
2019-04-11T08:41:09.405Z,7.80
2019-04-11T08:43:39.352Z,6.07
2019-04-11T08:46:24.998Z,9.53
2019-04-11T08:48:57.400Z,10.10
2019-04-11T08:51:29.331Z,9.97
2019-04-11T08:54:17.488Z,10.57
2019-04-11T08:56:47.441Z,8.93
2019-04-11T08:59:37.672Z,6.40
2019-04-11T09:02:08.708Z,9.67
2019-04-11T09:05:12.069Z,7.80
2019-04-11T09:07:54.109Z,9.00
2019-04-11T09:10:42.358Z,6.10
2019-04-11T09:13:22.929Z,7.43
2019-04-11T09:16:10.175Z,7.33
2019-04-11T09:18:39.522Z,6.87
2019-04-11T09:21:40.395Z,5.30
2019-04-11T09:24:24.311Z,4.60
2019-04-11T09:27:16.839Z,4.57
2019-04-11T09:29:50.374Z,5.73
2019-04-11T09:32:42.482Z,4.87
2019-04-11T09:35:22.088Z,5.50
2019-04-11T09:37:52.289Z,5.67
2019-04-11T09:40:52.655Z,8.33
2019-04-11T09:43:24.311Z,6.90
2019-04-11T09:46:10.331Z,5.93
2019-04-11T09:49:06.669Z,7.37
2019-04-11T09:52:07.363Z,6.70
2019-04-11T09:54:56.812Z,5.57
2019-04-11T09:57:38.352Z,7.90
2019-04-11T10:00:28.737Z,5.70
2019-04-11T10:03:09.089Z,5.80
2019-04-11T10:05:46.947Z,5.57
2019-04-11T10:08:35.507Z,5.70
2019-04-11T10:11:24.120Z,5.20
2019-04-11T10:14:09.268Z,5.07
2019-04-11T10:16:56.300Z,4.83
2019-04-11T10:19:44.344Z,4.63
2019-04-11T10:22:48.519Z,4.07
2019-04-11T10:25:30.804Z,6.80
2019-04-11T10:28:21.717Z,4.90
2019-04-11T10:31:23.754Z,6.23
2019-04-11T10:34:24.079Z,3.97
2019-04-11T10:37:07.527Z,3.97
2019-04-11T10:40:00.098Z,4.50
2019-04-11T10:42:31.059Z,7.70
2019-04-11T10:45:25.397Z,5.43
2019-04-11T10:48:09.618Z,6.27
2019-04-11T10:51:10.838Z,5.90
2019-04-11T10:53:43.747Z,7.77
2019-04-11T10:56:53.675Z,7.67
2019-04-11T10:59:28.025Z,5.37
2019-04-11T11:02:08.635Z,6.47
2019-04-11T11:04:45.025Z,5.73
2019-04-11T11:07:18.283Z,9.13
2019-04-11T11:10:07.176Z,8.93
2019-04-11T11:12:59.417Z,6.97
2019-04-11T11:15:42.265Z,4.67
2019-04-11T11:19:01.962Z,5.47
2019-04-11T11:21:17.623Z,6.77
2019-04-11T11:24:07.676Z,7.20
2019-04-11T11:26:39.309Z,5.77
2019-04-11T11:29:47.348Z,5.83
2019-04-11T11:32:25.186Z,6.90
2019-04-11T11:34:59.654Z,5.07
2019-04-11T11:37:53.956Z,6.77
2019-04-11T11:40:52.144Z,5.47
2019-04-11T11:43:23.868Z,6.10
2019-04-11T11:46:12.180Z,9.30
2019-04-11T11:48:46.382Z,4.97
2019-04-11T11:51:37.515Z,6.80
2019-04-11T11:54:15.602Z,4.87
2019-04-11T11:56:46.420Z,4.40
2019-04-11T11:59:36.385Z,4.87
2019-04-11T12:02:09.118Z,7.93
2019-04-11T12:05:07.826Z,4.60
2019-04-11T12:07:39.473Z,4.97
2019-04-11T12:10:26.619Z,4.80
2019-04-11T12:13:14.705Z,4.17
2019-04-11T12:16:02.086Z,3.53
2019-04-11T12:18:51.695Z,3.83
2019-04-11T12:21:26.364Z,7.13
2019-04-11T12:24:32.390Z,4.70
2019-04-11T12:27:20.573Z,6.10
2019-04-11T12:30:23.469Z,5.53
2019-04-11T12:33:01.548Z,4.33
2019-04-11T12:35:57.947Z,3.87
2019-04-11T12:38:49.836Z,4.63
2019-04-11T12:41:36.586Z,4.13
2019-04-11T12:44:26.684Z,4.33
2019-04-11T12:47:15.223Z,4.87
2019-04-11T12:50:10.101Z,6.33
2019-04-11T12:52:42.565Z,5.90
2019-04-11T12:55:15.203Z,5.23
2019-04-11T12:58:09.712Z,4.87
2019-04-11T13:00:59.360Z,7.57
2019-04-11T13:03:46.905Z,8.53
2019-04-11T13:06:34.853Z,5.17
2019-04-11T13:09:13.984Z,6.13
2019-04-11T13:11:44.696Z,5.37
2019-04-11T13:14:34.408Z,8.47
2019-04-11T13:17:04.931Z,6.90
2019-04-11T13:20:04.085Z,4.57
2019-04-11T13:22:25.170Z,3.97
2019-04-11T13:25:12.067Z,5.50
2019-04-11T13:27:48.276Z,6.57
2019-04-11T13:30:38.832Z,6.03
2019-04-11T13:33:36.837Z,5.13
2019-04-11T13:36:23.786Z,6.77
2019-04-11T13:38:53.036Z,5.37
2019-04-11T13:41:57.023Z,6.47
2019-04-11T13:44:32.439Z,9.57
2019-04-11T13:47:23.572Z,5.97
2019-04-11T13:49:57.336Z,9.03
2019-04-11T13:52:45.637Z,5.13
2019-04-11T13:55:20.946Z,5.93
2019-04-11T13:58:12.081Z,5.73
2019-04-11T14:00:57.888Z,5.67
2019-04-11T14:03:49.580Z,5.80
2019-04-11T14:06:34.961Z,5.20
2019-04-11T14:09:23.912Z,5.90
2019-04-11T14:12:05.720Z,6.40
2019-04-11T14:14:40.209Z,6.77
2019-04-11T14:17:18.284Z,6.87
2019-04-11T14:20:02.998Z,6.03
2019-04-11T14:22:43.411Z,4.97
2019-04-11T14:25:21.723Z,4.70
2019-04-11T14:27:53.501Z,10.67
2019-04-11T14:30:38.661Z,5.67
2019-04-11T14:33:08.443Z,5.13
2019-04-11T14:36:08.724Z,6.07
2019-04-11T14:38:47.941Z,4.80
2019-04-11T14:41:28.228Z,5.77
2019-04-11T14:44:02.901Z,7.50
2019-04-11T14:46:52.415Z,5.13
2019-04-11T14:49:24.021Z,8.83
2019-04-11T14:52:17.272Z,8.03
2019-04-11T14:54:51.385Z,5.57
2019-04-11T14:57:55.057Z,7.53
2019-04-11T15:00:36.561Z,4.90
2019-04-11T15:03:44.240Z,5.80
2019-04-11T15:06:31.455Z,4.83
2019-04-11T15:09:31.923Z,5.87
2019-04-11T15:12:05.276Z,4.97
2019-04-11T15:14:55.017Z,5.67
2019-04-11T15:17:37.984Z,5.50
2019-04-11T15:20:24.345Z,5.17
2019-04-11T15:22:59.722Z,6.17
2019-04-11T15:26:09.293Z,5.90
2019-04-11T15:29:13.610Z,4.53
2019-04-11T15:32:12.970Z,4.63
2019-04-11T15:34:52.885Z,4.70
2019-04-11T15:37:50.273Z,3.90
2019-04-11T15:40:50.617Z,4.33
2019-04-11T15:43:42.640Z,6.30
2019-04-11T15:46:21.699Z,3.50
2019-04-11T15:49:20.480Z,4.13
2019-04-11T15:51:52.593Z,4.70
2019-04-11T15:54:44.510Z,2.97
2019-04-11T15:57:32.884Z,5.17
2019-04-11T16:00:30.631Z,3.67
2019-04-11T16:03:29.005Z,4.23
2019-04-11T16:06:15.905Z,6.10
2019-04-11T16:08:52.263Z,4.63
2019-04-11T16:11:41.315Z,4.47
2019-04-11T16:14:21.151Z,4.60
2019-04-11T16:17:13.760Z,4.20
2019-04-11T16:20:00.967Z,6.57
2019-04-11T16:23:08.051Z,4.30
2019-04-11T16:25:49.990Z,4.47
2019-04-11T16:28:42.124Z,5.03
2019-04-11T16:31:13.841Z,4.87
2019-04-11T16:33:54.791Z,4.67
2019-04-11T16:36:41.969Z,5.13
2019-04-11T16:39:50.332Z,4.57
2019-04-11T16:42:21.823Z,5.27
2019-04-11T16:45:18.445Z,4.30
2019-04-11T16:48:15.659Z,4.77
2019-04-11T16:50:44.980Z,6.63
2019-04-11T16:53:14.225Z,4.13
2019-04-11T16:55:43.792Z,3.93
2019-04-11T16:58:16.948Z,6.40
2019-04-11T17:00:45.910Z,3.53
2019-04-11T17:03:17.190Z,3.50
2019-04-11T17:05:55.996Z,3.57
2019-04-11T17:08:38.223Z,5.53
2019-04-11T17:11:09.697Z,4.23
2019-04-11T17:13:39.100Z,6.77
2019-04-11T17:16:16.022Z,12.67
2019-04-11T17:18:46.403Z,5.10
2019-04-11T17:21:16.214Z,18.50
2019-04-11T17:23:47.169Z,6.70
2019-04-11T17:26:16.845Z,5.47
2019-04-11T17:28:46.985Z,12.83
2019-04-11T17:31:18.599Z,13.83
2019-04-11T17:33:50.373Z,13.17
2019-04-11T17:36:19.174Z,14.40
2019-04-11T17:38:48.690Z,7.03
2019-04-11T17:41:18.173Z,19.60
2019-04-11T17:43:51.365Z,33.17
2019-04-11T17:46:18.544Z,32.70
2019-04-11T17:48:50.301Z,13.40
2019-04-11T17:51:18.275Z,29.97
2019-04-11T17:53:47.471Z,13.03
2019-04-11T17:56:16.984Z,9.83
2019-04-11T17:58:46.247Z,8.97
2019-04-11T18:01:15.510Z,8.60
2019-04-11T18:03:45.248Z,10.43
2019-04-11T18:06:16.884Z,5.53
2019-04-11T18:08:46.716Z,8.30
2019-04-11T18:11:17.352Z,15.83
2019-04-11T18:13:48.537Z,8.00
2019-04-11T18:16:20.169Z,7.90
2019-04-11T18:18:49.620Z,9.17
2019-04-11T18:21:19.038Z,6.17
2019-04-11T18:23:50.078Z,6.77
2019-04-11T18:26:21.466Z,5.47
2019-04-11T18:28:51.971Z,5.33
2019-04-11T18:31:24.976Z,5.47
2019-04-11T18:33:54.895Z,6.63
2019-04-11T18:36:25.264Z,8.33
2019-04-11T18:38:55.381Z,7.37
2019-04-11T18:41:25.324Z,5.97
2019-04-11T18:43:55.023Z,6.67
2019-04-11T18:46:25.016Z,6.73
2019-04-11T18:48:54.689Z,7.53
2019-04-11T18:51:24.191Z,8.13
2019-04-11T18:53:54.722Z,8.07
2019-04-11T18:56:24.045Z,8.07
2019-04-11T18:58:53.048Z,8.17
2019-04-11T19:01:22.126Z,8.30
2019-04-11T19:03:51.154Z,7.80
2019-04-11T19:06:27.630Z,11.53
2019-04-11T19:08:50.779Z,9.20
2019-04-11T19:11:19.951Z,9.67
2019-04-11T19:13:48.945Z,11.03
2019-04-11T19:16:17.981Z,8.77
2019-04-11T19:18:47.798Z,6.90
2019-04-11T19:21:21.195Z,8.93
2019-04-11T19:23:50.239Z,6.73
2019-04-11T19:26:19.258Z,9.47
2019-04-11T19:28:49.265Z,5.97
2019-04-11T19:31:18.225Z,9.27
2019-04-11T19:33:49.504Z,6.67
2019-04-11T19:36:18.754Z,6.63
2019-04-11T19:38:47.865Z,7.70
2019-04-11T19:41:20.498Z,7.50
2019-04-11T19:43:49.906Z,7.60
2019-04-11T19:46:20.461Z,9.70
2019-04-11T19:48:50.323Z,8.60
2019-04-11T19:51:19.359Z,7.23
2019-04-11T19:53:49.992Z,7.80
2019-04-11T19:56:29.099Z,8.60
2019-04-11T19:59:02.015Z,8.40
2019-04-11T20:01:30.733Z,8.17
2019-04-11T20:03:59.861Z,8.40
2019-04-11T20:06:29.152Z,7.97
2019-04-11T20:09:01.531Z,9.47
2019-04-11T20:11:30.343Z,8.13
2019-04-11T20:14:03.182Z,8.77
2019-04-11T20:16:41.098Z,7.63
2019-04-11T20:19:03.196Z,7.47
2019-04-11T20:21:47.192Z,6.87
2019-04-11T20:24:33.045Z,10.60
2019-04-11T20:27:07.092Z,8.50
2019-04-11T20:29:38.053Z,9.13
2019-04-11T20:32:15.298Z,10.37
2019-04-11T20:34:50.477Z,10.37
2019-04-11T20:37:39.418Z,9.50
2019-04-11T20:40:11.429Z,9.90
2019-04-11T20:42:43.712Z,10.00
2019-04-11T20:45:18.943Z,6.43
2019-04-11T20:47:53.827Z,7.60
2019-04-11T20:50:24.615Z,9.63
2019-04-11T20:52:55.455Z,8.50
2019-04-11T20:55:24.887Z,8.30
2019-04-11T20:57:57.736Z,8.50
2019-04-11T21:00:50.625Z,8.97
2019-04-11T21:03:22.502Z,7.83
2019-04-11T21:05:51.819Z,8.53
2019-04-11T21:08:21.988Z,9.87
2019-04-11T21:10:50.842Z,10.00
2019-04-11T21:13:19.775Z,10.33
2019-04-11T21:15:48.758Z,9.43
2019-04-11T21:18:17.651Z,8.20
2019-04-11T21:20:46.801Z,6.73
2019-04-11T21:23:24.336Z,9.70
2019-04-11T21:25:46.904Z,7.97
2019-04-11T21:28:16.074Z,8.30
2019-04-11T21:30:44.862Z,9.00
2019-04-11T21:33:15.627Z,9.23
2019-04-11T21:35:44.793Z,7.63
2019-04-11T21:38:13.988Z,8.93
2019-04-11T21:40:44.602Z,10.23
2019-04-11T21:43:16.075Z,7.67
2019-04-11T21:45:45.881Z,8.60
2019-04-11T21:48:15.013Z,8.13
2019-04-11T21:50:44.048Z,7.90
2019-04-11T21:53:14.337Z,9.67
2019-04-11T21:55:47.164Z,9.47
2019-04-11T21:58:14.586Z,8.87
2019-04-11T22:00:46.894Z,8.57
2019-04-11T22:03:15.993Z,8.60
2019-04-11T22:05:44.871Z,8.30
2019-04-11T22:08:13.884Z,7.60
2019-04-11T22:10:42.717Z,8.10
2019-04-11T22:13:11.668Z,8.13
2019-04-11T22:15:42.517Z,8.73
2019-04-11T22:18:15.900Z,10.20
2019-04-11T22:20:41.886Z,8.80
2019-04-11T22:23:11.068Z,10.13
2019-04-11T22:25:39.817Z,9.47
2019-04-11T22:28:08.894Z,8.63
2019-04-11T22:30:38.075Z,9.37
2019-04-11T22:33:13.698Z,7.03
2019-04-11T22:35:42.463Z,8.93
2019-04-11T22:38:11.740Z,7.67
2019-04-11T22:40:40.720Z,9.93
2019-04-11T22:43:22.522Z,7.80
2019-04-11T22:45:40.576Z,9.90
2019-04-11T22:48:09.474Z,9.83
2019-04-11T22:50:40.756Z,10.20
2019-04-11T22:53:12.804Z,9.73
2019-04-11T22:55:41.292Z,11.83
2019-04-11T22:58:13.988Z,10.93
2019-04-11T23:00:45.009Z,10.63
2019-04-11T23:03:31.034Z,12.23
2019-04-11T23:06:01.879Z,9.53
2019-04-11T23:08:32.017Z,9.00
2019-04-11T23:11:01.406Z,8.93
2019-04-11T23:13:32.049Z,9.43
2019-04-11T23:16:03.973Z,10.23
2019-04-11T23:18:33.070Z,8.57
2019-04-11T23:21:01.927Z,10.87
2019-04-11T23:23:30.913Z,9.03
2019-04-11T23:26:00.513Z,10.03
2019-04-11T23:28:29.561Z,11.23
2019-04-11T23:30:58.564Z,9.67
2019-04-11T23:33:27.307Z,8.30
2019-04-11T23:35:56.170Z,12.43
2019-04-11T23:38:25.160Z,9.97
2019-04-11T23:40:54.010Z,11.03
2019-04-11T23:43:22.818Z,9.87
2019-04-11T23:45:52.250Z,10.17
2019-04-11T23:48:23.737Z,10.10
2019-04-11T23:50:54.790Z,8.90
2019-04-11T23:53:28.287Z,9.90
2019-04-11T23:55:59.830Z,12.53
2019-04-11T23:58:26.706Z,10.90
